Terminal Aerodrome Forecast
Issued by NWS

Home | Current Version | Previous Version | Text Only | Print | Product List | Glossary On
Versions: 1 2 3 4 5 6 7 8 9 10 11 12 13 14 15 16 17 18 19 20
000
FTUS46 KSEW 251300 AAA
TAFBFI
TAF AMD
KBFI 251332Z 2514/2612 VRB03KT P6SM BKN030 BKN050
     FM251800 31003KT P6SM BKN050
     FM252100 30005KT P6SM SCT250
     FM260600 VRB03KT P6SM FEW070=

USA.gov is the U.S. government's official web portal to all federal, state and local government web resources and services.